Bonanza, Oregon
Current Conditions -  °F | °C
As of 10:00 AM on Tuesday 21 Oct 2014 (Local Time) from KLMT Reporting Station
Overcast Overcast  
Wind Chill: 40°   Ceiling: 9500
Heat Index: 44°   Visibility: 10mi
Dew Point: 38°   Wind: 7mph
Humidity: 79%   Direction: 170°S
Pressure: 30.13"   Gusts: NA
Location:  42.2°N, 121.41°W
Report Text: KLMT 211700Z 17006KT 10SM FEW008 OVC095 07/03 A3013 RMK AO2 T00670033
Loading
Personal Weather Stations






























Interactive Weather Map
Tropical Storm Tracking
New forecast layout! Learn more

10-Day Weather Forecast

Advertisements
Track Severe Weather on mobile